Time;durP1;ratioP1;P1;durP2;ratioP2;P2;SDS_P1;SDS_P2;PMS_P1;PMS_P2;Temp;Humidity;BMP_temperature;BMP_pressure;BME280_temperature;BME280_humidity;BME280_pressure;Samples;Min_cycle;Max_cycle;Signal;HPM_P1;HPM_P2
2023/10/22 00:02:02;;;;;;;8.03;1.40;;;;;;;;;;5009808;28;20470;-61
2023/10/22 00:04:27;;;;;;;4.40;1.20;;;;;;;;;;5016748;28;20415;-61
2023/10/22 00:06:52;;;;;;;5.30;1.20;;;;;;;;;;5016049;28;20034;-62
2023/10/22 00:09:18;;;;;;;5.77;1.50;;;;;;;;;;5017361;28;20029;-61
2023/10/22 00:11:43;;;;;;;4.43;0.90;;;;;;;;;;5012668;28;20156;-62
2023/10/22 00:14:08;;;;;;;3.30;1.17;;;;;;;;;;5011738;28;20030;-60
2023/10/22 00:16:33;;;;;;;8.43;1.20;;;;;;;;;;5012017;28;20068;-61
2023/10/22 00:18:58;;;;;;;4.33;1.20;;;;;;;;;;5009271;28;20098;-62
2023/10/22 00:21:24;;;;;;;3.40;1.20;;;;;;;;;;5016544;28;20073;-63
2023/10/22 00:23:49;;;;;;;7.60;1.40;;;;;;;;;;5015017;28;20048;-62
2023/10/22 00:26:14;;;;;;;5.00;1.63;;;;;;;;;;5013335;28;20071;-62
2023/10/22 00:28:39;;;;;;;2.80;1.00;;;;;;;;;;5011680;28;20446;-62
2023/10/22 00:31:05;;;;;;;4.10;1.00;;;;;;;;;;5007339;28;20464;-62
2023/10/22 00:33:30;;;;;;;6.97;1.17;;;;;;;;;;5011437;28;20395;-66
2023/10/22 00:35:58;;;;;;;5.17;0.90;;;;;;;;;;5015478;28;20038;-66
2023/10/22 00:38:24;;;;;;;5.83;1.20;;;;;;;;;;5016243;28;20484;-66
2023/10/22 00:40:49;;;;;;;8.07;1.23;;;;;;;;;;5018313;28;20045;-66
2023/10/22 00:43:14;;;;;;;4.10;1.20;;;;;;;;;;5013778;28;20030;-66
2023/10/22 00:45:40;;;;;;;6.23;1.20;;;;;;;;;;5014677;28;20018;-66
2023/10/22 00:48:06;;;;;;;6.47;1.10;;;;;;;;;;5011631;28;20032;-65
2023/10/22 00:50:31;;;;;;;5.80;1.17;;;;;;;;;;5017296;28;20029;-66
2023/10/22 00:52:57;;;;;;;6.47;1.00;;;;;;;;;;5012470;28;20104;-66
2023/10/22 00:55:22;;;;;;;4.37;1.00;;;;;;;;;;5010495;28;20022;-65
2023/10/22 00:57:48;;;;;;;4.80;1.00;;;;;;;;;;5011718;28;20018;-65
2023/10/22 01:03:17;;;;;;;6.67;1.10;;;;;;;;;;5011002;28;20374;-66
2023/10/22 01:05:42;;;;;;;3.53;1.23;;;;;;;;;;5014571;28;20036;-66
2023/10/22 01:08:08;;;;;;;8.83;1.10;;;;;;;;;;5011427;28;20445;-66
2023/10/22 01:10:33;;;;;;;7.30;1.20;;;;;;;;;;5012696;28;20044;-66
2023/10/22 01:12:59;;;;;;;5.17;0.97;;;;;;;;;;5011258;28;20017;-66
2023/10/22 01:15:24;;;;;;;4.03;1.00;;;;;;;;;;5015162;28;20025;-66
2023/10/22 01:17:49;;;;;;;4.47;1.10;;;;;;;;;;5010630;28;20542;-66
2023/10/22 01:20:14;;;;;;;5.97;1.00;;;;;;;;;;5010335;28;20433;-65
2023/10/22 01:22:39;;;;;;;5.70;1.30;;;;;;;;;;5010980;28;20383;-65
2023/10/22 01:25:05;;;;;;;3.83;1.03;;;;;;;;;;5014189;28;20033;-66
2023/10/22 01:27:33;;;;;;;5.07;1.00;;;;;;;;;;5010968;28;20093;-65
2023/10/22 01:29:58;;;;;;;8.63;1.20;;;;;;;;;;5012535;28;20038;-65
2023/10/22 01:32:24;;;;;;;5.77;1.10;;;;;;;;;;5011182;28;20456;-62
2023/10/22 01:34:49;;;;;;;4.27;1.20;;;;;;;;;;5011129;28;20447;-66
2023/10/22 01:37:15;;;;;;;5.97;1.10;;;;;;;;;;5014741;28;20494;-66
2023/10/22 01:39:40;;;;;;;6.00;1.03;;;;;;;;;;5010933;28;20105;-66
2023/10/22 01:42:05;;;;;;;5.63;1.03;;;;;;;;;;5012563;28;20056;-66
2023/10/22 01:44:30;;;;;;;4.43;0.83;;;;;;;;;;5013284;28;20013;-65
2023/10/22 01:46:56;;;;;;;4.13;1.00;;;;;;;;;;5012441;28;20033;-66
2023/10/22 01:49:21;;;;;;;5.63;1.10;;;;;;;;;;5010475;28;20026;-65
2023/10/22 01:51:47;;;;;;;3.93;1.00;;;;;;;;;;5013613;28;20118;-66
2023/10/22 01:54:12;;;;;;;6.77;1.00;;;;;;;;;;5010019;28;20116;-67
2023/10/22 01:56:38;;;;;;;7.37;1.20;;;;;;;;;;5010407;28;20045;-66
2023/10/22 01:59:05;;;;;;;2.90;1.27;;;;;;;;;;5012892;28;20391;-66
2023/10/22 02:01:31;;;;;;;3.33;0.80;;;;;;;;;;5011961;28;20029;-66
2023/10/22 02:03:57;;;;;;;4.70;1.37;;;;;;;;;;5011963;28;20030;-66
2023/10/22 02:06:22;;;;;;;6.07;1.10;;;;;;;;;;5009449;28;20114;-66
2023/10/22 02:08:47;;;;;;;4.27;0.90;;;;;;;;;;5011733;28;20018;-66
2023/10/22 02:11:12;;;;;;;3.87;0.90;;;;;;;;;;5010830;28;20022;-64
2023/10/22 02:13:38;;;;;;;5.47;0.90;;;;;;;;;;5011913;28;20033;-65
2023/10/22 02:16:03;;;;;;;2.97;1.07;;;;;;;;;;5012013;28;20022;-66
2023/10/22 02:18:28;;;;;;;2.93;0.70;;;;;;;;;;5009735;28;20082;-66
2023/10/22 02:20:57;;;;;;;5.60;0.90;;;;;;;;;;5011193;28;20026;-65
2023/10/22 02:23:22;;;;;;;5.77;0.90;;;;;;;;;;5010291;28;20475;-66
2023/10/22 02:25:49;;;;;;;4.17;1.07;;;;;;;;;;5013550;28;20037;-65
2023/10/22 02:28:14;;;;;;;3.80;0.93;;;;;;;;;;5008601;28;20044;-66
2023/10/22 02:30:39;;;;;;;6.10;1.00;;;;;;;;;;5009762;28;20380;-65
2023/10/22 02:33:04;;;;;;;4.83;0.90;;;;;;;;;;5011466;28;20014;-65
2023/10/22 02:35:30;;;;;;;4.83;1.00;;;;;;;;;;5010192;28;20057;-67
2023/10/22 02:37:56;;;;;;;7.20;1.10;;;;;;;;;;5010894;28;20428;-66
2023/10/22 02:40:21;;;;;;;3.73;0.70;;;;;;;;;;5008308;28;20096;-66
2023/10/22 02:42:46;;;;;;;6.53;0.80;;;;;;;;;;5009914;28;20018;-66
2023/10/22 02:45:11;;;;;;;4.63;0.90;;;;;;;;;;5010216;28;20399;-62
2023/10/22 02:47:36;;;;;;;4.20;0.90;;;;;;;;;;5013279;28;20026;-62
2023/10/22 02:50:04;;;;;;;2.93;0.90;;;;;;;;;;5015436;28;20038;-61
2023/10/22 02:52:29;;;;;;;4.90;1.00;;;;;;;;;;5013179;28;20038;-62
2023/10/22 02:54:54;;;;;;;4.97;1.00;;;;;;;;;;5017362;28;20026;-60
2023/10/22 02:57:20;;;;;;;3.33;0.80;;;;;;;;;;5013960;28;20083;-61
2023/10/22 02:59:45;;;;;;;15.47;2.23;;;;;;;;;;5032621;28;20026;-60
2023/10/22 03:02:10;;;;;;;5.33;1.00;;;;;;;;;;5118067;28;20023;-62
2023/10/22 03:04:35;;;;;;;7.20;0.87;;;;;;;;;;5117717;28;20020;-61
2023/10/22 03:07:01;;;;;;;6.43;0.93;;;;;;;;;;5117602;28;20102;-61
2023/10/22 03:09:26;;;;;;;6.00;0.80;;;;;;;;;;5041762;28;20040;-61
2023/10/22 03:11:51;;;;;;;5.30;1.03;;;;;;;;;;5016735;28;20068;-62
2023/10/22 03:14:20;;;;;;;4.57;0.90;;;;;;;;;;5014179;28;20078;-62
2023/10/22 03:16:45;;;;;;;5.13;1.10;;;;;;;;;;5018517;28;20030;-62
2023/10/22 03:19:11;;;;;;;7.07;1.00;;;;;;;;;;5016926;28;20042;-61
2023/10/22 03:21:36;;;;;;;5.50;1.00;;;;;;;;;;5018096;28;20030;-63
2023/10/22 03:24:03;;;;;;;4.27;1.30;;;;;;;;;;5022786;28;20030;-62
2023/10/22 03:26:29;;;;;;;8.00;1.00;;;;;;;;;;5015129;28;20447;-61
2023/10/22 03:28:55;;;;;;;5.20;0.93;;;;;;;;;;5013423;28;20491;-62
2023/10/22 03:31:20;;;;;;;4.77;1.00;;;;;;;;;;5013063;28;20026;-62
2023/10/22 03:33:45;;;;;;;5.73;1.50;;;;;;;;;;5013352;28;20088;-62
2023/10/22 03:36:11;;;;;;;3.30;1.30;;;;;;;;;;5013328;28;20387;-61
2023/10/22 03:38:36;;;;;;;5.20;1.10;;;;;;;;;;5012927;28;20022;-61
2023/10/22 03:41:03;;;;;;;7.10;0.97;;;;;;;;;;5012888;28;20170;-61
2023/10/22 03:43:29;;;;;;;5.90;0.97;;;;;;;;;;5009220;28;20537;-61
2023/10/22 03:45:55;;;;;;;7.03;1.13;;;;;;;;;;4995479;28;20048;-62
2023/10/22 03:48:20;;;;;;;3.50;0.83;;;;;;;;;;5010631;28;20517;-61
2023/10/22 03:50:46;;;;;;;3.17;0.83;;;;;;;;;;5012879;28;20511;-62
2023/10/22 03:53:12;;;;;;;4.50;1.07;;;;;;;;;;5012896;28;20439;-62
2023/10/22 03:55:37;;;;;;;4.17;0.87;;;;;;;;;;5012868;28;20110;-67
2023/10/22 03:58:02;;;;;;;5.37;0.83;;;;;;;;;;5012928;28;20049;-66
2023/10/22 04:00:28;;;;;;;4.17;0.93;;;;;;;;;;5012031;28;20030;-66
2023/10/22 04:02:53;;;;;;;5.27;0.90;;;;;;;;;;5012368;28;20430;-67
2023/10/22 04:05:18;;;;;;;5.50;0.80;;;;;;;;;;5013745;28;20032;-67
2023/10/22 04:07:43;;;;;;;7.43;1.03;;;;;;;;;;5010078;28;20097;-67
2023/10/22 04:10:12;;;;;;;3.20;0.83;;;;;;;;;;5009767;28;20452;-67
2023/10/22 04:12:37;;;;;;;5.77;0.80;;;;;;;;;;5006930;28;20026;-67
2023/10/22 04:15:03;;;;;;;3.00;0.70;;;;;;;;;;5007302;28;20040;-66
2023/10/22 04:17:29;;;;;;;3.50;0.93;;;;;;;;;;5011634;28;20423;-67
2023/10/22 04:19:54;;;;;;;5.07;0.90;;;;;;;;;;5007669;28;20029;-66
2023/10/22 04:22:21;;;;;;;3.67;1.00;;;;;;;;;;5028535;28;20045;-67
2023/10/22 04:24:46;;;;;;;3.23;0.70;;;;;;;;;;5024399;28;20032;-67
2023/10/22 04:27:11;;;;;;;4.33;0.90;;;;;;;;;;5032093;28;20034;-67
2023/10/22 04:29:38;;;;;;;4.03;0.70;;;;;;;;;;5009796;28;20022;-67
2023/10/22 04:32:03;;;;;;;7.30;1.00;;;;;;;;;;4993799;28;20537;-67
2023/10/22 04:34:28;;;;;;;5.13;0.90;;;;;;;;;;4993856;28;20034;-67
2023/10/22 04:36:54;;;;;;;4.73;1.20;;;;;;;;;;5005375;28;20395;-67
2023/10/22 04:39:19;;;;;;;4.73;0.93;;;;;;;;;;5007493;28;20483;-67
2023/10/22 04:41:44;;;;;;;3.07;0.70;;;;;;;;;;5008203;28;20026;-67
2023/10/22 04:44:09;;;;;;;4.40;0.93;;;;;;;;;;5011618;28;20030;-67
2023/10/22 04:46:35;;;;;;;3.43;0.83;;;;;;;;;;5010358;28;20037;-68
2023/10/22 04:49:00;;;;;;;5.97;1.00;;;;;;;;;;5010959;28;20157;-67
2023/10/22 04:51:25;;;;;;;3.40;1.00;;;;;;;;;;5004751;28;20105;-68
2023/10/22 04:53:51;;;;;;;3.90;0.90;;;;;;;;;;5019558;28;20031;-67
2023/10/22 04:56:16;;;;;;;6.70;1.33;;;;;;;;;;5012346;28;20101;-67
2023/10/22 04:58:41;;;;;;;5.80;1.00;;;;;;;;;;5009869;28;20046;-67
2023/10/22 05:01:08;;;;;;;3.87;0.90;;;;;;;;;;5015778;28;20024;-67
2023/10/22 05:03:34;;;;;;;4.33;0.80;;;;;;;;;;5045514;28;20116;-68
2023/10/22 05:06:02;;;;;;;6.87;0.90;;;;;;;;;;5014059;28;20417;-67
2023/10/22 05:08:27;;;;;;;5.07;0.90;;;;;;;;;;5011809;28;20387;-68
2023/10/22 05:10:53;;;;;;;3.93;0.80;;;;;;;;;;5011361;28;20037;-68
2023/10/22 05:13:18;;;;;;;6.73;0.90;;;;;;;;;;4999743;28;20373;-67
2023/10/22 05:15:49;;;;;;;5.33;1.10;;;;;;;;;;5011867;28;20022;-68
2023/10/22 05:18:14;;;;;;;5.85;1.33;;;;;;;;;;5010036;28;20514;-68
2023/10/22 05:20:40;;;;;;;6.27;0.60;;;;;;;;;;5011766;28;20097;-68
2023/10/22 05:23:05;;;;;;;3.80;0.70;;;;;;;;;;5011679;28;20029;-68
2023/10/22 05:25:30;;;;;;;4.93;0.90;;;;;;;;;;5011725;28;20018;-68
2023/10/22 05:27:55;;;;;;;5.27;0.93;;;;;;;;;;5011095;28;20539;-68
2023/10/22 05:30:20;;;;;;;5.13;0.80;;;;;;;;;;5011550;28;20476;-68
2023/10/22 05:32:46;;;;;;;2.37;0.77;;;;;;;;;;5011314;28;20480;-67
2023/10/22 05:35:11;;;;;;;3.50;0.67;;;;;;;;;;5011373;28;20051;-66
2023/10/22 05:37:36;;;;;;;3.00;0.80;;;;;;;;;;5011082;28;20014;-67
2023/10/22 05:40:01;;;;;;;5.83;0.73;;;;;;;;;;5011211;28;20022;-68
2023/10/22 05:42:27;;;;;;;4.07;0.80;;;;;;;;;;5011432;28;20026;-67
2023/10/22 05:44:52;;;;;;;2.80;0.80;;;;;;;;;;5011278;28;20438;-67
2023/10/22 05:47:17;;;;;;;5.57;0.70;;;;;;;;;;5008422;28;20022;-67
2023/10/22 05:49:43;;;;;;;3.33;1.03;;;;;;;;;;5009204;28;20444;-67
2023/10/22 05:52:08;;;;;;;5.60;0.80;;;;;;;;;;5010946;28;20097;-68
2023/10/22 05:54:33;;;;;;;3.87;0.73;;;;;;;;;;5001397;28;20079;-68
2023/10/22 05:57:00;;;;;;;3.53;0.80;;;;;;;;;;5011251;28;20026;-68
2023/10/22 05:59:25;;;;;;;3.87;0.80;;;;;;;;;;5007946;28;20053;-68
2023/10/22 06:01:51;;;;;;;2.80;0.80;;;;;;;;;;5007449;28;20404;-68
2023/10/22 06:04:16;;;;;;;4.40;0.80;;;;;;;;;;5009200;28;20033;-68
2023/10/22 06:06:41;;;;;;;6.03;0.93;;;;;;;;;;5010855;28;20022;-68
2023/10/22 06:09:06;;;;;;;4.30;0.80;;;;;;;;;;5008960;28;20030;-68
2023/10/22 06:11:32;;;;;;;3.30;0.60;;;;;;;;;;5027390;28;20120;-69
2023/10/22 06:13:57;;;;;;;3.73;0.93;;;;;;;;;;5023239;28;20487;-68
2023/10/22 06:16:23;;;;;;;2.77;0.60;;;;;;;;;;5010387;28;20472;-62
2023/10/22 06:18:48;;;;;;;5.05;0.75;;;;;;;;;;5009654;28;20526;-66
2023/10/22 06:21:14;;;;;;;6.13;0.93;;;;;;;;;;4997000;28;20031;-64
2023/10/22 06:23:39;;;;;;;2.57;0.70;;;;;;;;;;4993688;28;21289;-64
2023/10/22 06:26:04;;;;;;;2.40;0.90;;;;;;;;;;5009772;28;20093;-64
2023/10/22 06:28:30;;;;;;;2.53;0.73;;;;;;;;;;5002818;28;20026;-63
2023/10/22 06:31:08;;;;;;;2.57;0.70;;;;;;;;;;5008996;28;20376;-64
2023/10/22 06:33:34;;;;;;;1.80;0.70;;;;;;;;;;5008826;28;20426;-62
2023/10/22 06:36:09;;;;;;;3.20;0.80;;;;;;;;;;5010711;28;20026;-66
2023/10/22 06:38:35;;;;;;;2.45;0.80;;;;;;;;;;5008006;28;20024;-64
2023/10/22 06:41:00;;;;;;;3.58;1.00;;;;;;;;;;5006325;28;20034;-65
2023/10/22 06:43:25;;;;;;;3.40;0.97;;;;;;;;;;5009958;28;20387;-66
2023/10/22 06:45:50;;;;;;;3.47;0.90;;;;;;;;;;5010559;28;20460;-62
2023/10/22 06:48:15;;;;;;;2.83;1.00;;;;;;;;;;5000036;28;20358;-64
2023/10/22 06:50:41;;;;;;;3.90;0.93;;;;;;;;;;5010324;28;20026;-64
2023/10/22 06:53:06;;;;;;;3.15;1.25;;;;;;;;;;5014066;28;20120;-63
2023/10/22 06:55:31;;;;;;;1.80;0.90;;;;;;;;;;5013255;28;20038;-64
2023/10/22 06:57:57;;;;;;;3.17;1.27;;;;;;;;;;5012311;28;20049;-64
2023/10/22 07:00:22;;;;;;;4.78;1.30;;;;;;;;;;4998853;28;20062;-66
2023/10/22 07:02:47;;;;;;;3.20;1.00;;;;;;;;;;5006901;28;20033;-61
2023/10/22 07:05:12;;;;;;;5.35;1.45;;;;;;;;;;5008040;28;20025;-65
2023/10/22 07:07:43;;;;;;;2.90;1.20;;;;;;;;;;5011449;28;20018;-63
2023/10/22 07:10:09;;;;;;;4.32;1.20;;;;;;;;;;5002593;28;20022;-64
2023/10/22 07:12:34;;;;;;;3.75;1.40;;;;;;;;;;5002447;28;20080;-63
2023/10/22 07:14:59;;;;;;;2.20;1.20;;;;;;;;;;5010177;28;20037;-65
2023/10/22 07:17:24;;;;;;;1.55;0.80;;;;;;;;;;5008441;28;20038;-64
2023/10/22 07:19:50;;;;;;;6.83;1.97;;;;;;;;;;5010093;28;20083;-65
2023/10/22 07:22:15;;;;;;;3.95;1.35;;;;;;;;;;5010302;28;20083;-66
2023/10/22 07:24:40;;;;;;;2.87;1.00;;;;;;;;;;5011869;28;20381;-64
2023/10/22 07:27:05;;;;;;;3.53;1.13;;;;;;;;;;5011450;28;20045;-69
2023/10/22 07:29:31;;;;;;;3.88;1.30;;;;;;;;;;5010650;28;20032;-69
2023/10/22 07:31:56;;;;;;;3.10;1.10;;;;;;;;;;5009071;28;20026;-68
2023/10/22 07:34:21;;;;;;;3.47;1.40;;;;;;;;;;5010565;28;20048;-69
2023/10/22 07:36:46;;;;;;;2.95;1.30;;;;;;;;;;5019706;28;20101;-70
2023/10/22 07:39:12;;;;;;;2.42;1.15;;;;;;;;;;5013289;28;20076;-67
2023/10/22 07:41:37;;;;;;;5.63;1.47;;;;;;;;;;5020631;28;20474;-68
2023/10/22 07:44:03;;;;;;;3.80;1.50;;;;;;;;;;5012564;28;20030;-68
2023/10/22 07:46:28;;;;;;;3.20;1.30;;;;;;;;;;5021983;28;20018;-69
2023/10/22 07:48:54;;;;;;;4.03;1.50;;;;;;;;;;5020532;28;20029;-67
2023/10/22 07:51:19;;;;;;;3.38;1.50;;;;;;;;;;5003527;28;20026;-67
2023/10/22 07:53:45;;;;;;;8.65;1.80;;;;;;;;;;4997070;28;20022;-70
2023/10/22 07:56:11;;;;;;;3.00;1.40;;;;;;;;;;4993218;28;20042;-68
2023/10/22 07:58:37;;;;;;;4.55;1.75;;;;;;;;;;5015564;28;20487;-68
2023/10/22 08:01:03;;;;;;;2.50;1.60;;;;;;;;;;5007419;28;20082;-68
2023/10/22 08:03:29;;;;;;;4.57;1.60;;;;;;;;;;5012493;28;20518;-69
2023/10/22 08:05:55;;;;;;;2.90;1.60;;;;;;;;;;5009739;28;20106;-71
2023/10/22 08:08:20;;;;;;;5.95;2.20;;;;;;;;;;5011567;28;20395;-68
2023/10/22 08:10:45;;;;;;;4.10;1.80;;;;;;;;;;5018329;28;20457;-67
2023/10/22 08:13:10;;;;;;;4.43;1.77;;;;;;;;;;5030243;28;20510;-67
2023/10/22 08:15:36;;;;;;;3.40;1.90;;;;;;;;;;5009920;27;20387;-70
2023/10/22 08:18:01;;;;;;;5.65;1.90;;;;;;;;;;5020541;28;20528;-67
2023/10/22 08:20:26;;;;;;;5.40;2.10;;;;;;;;;;5011353;28;20034;-68
2023/10/22 08:22:51;;;;;;;4.72;1.98;;;;;;;;;;5001923;28;20046;-66
2023/10/22 08:25:16;;;;;;;4.32;1.95;;;;;;;;;;5004549;28;20026;-67
2023/10/22 08:27:42;;;;;;;6.05;2.15;;;;;;;;;;5010377;28;20046;-67
2023/10/22 08:30:07;;;;;;;4.60;2.40;;;;;;;;;;5007627;28;20036;-69
2023/10/22 08:32:33;;;;;;;5.22;2.22;;;;;;;;;;4995050;28;20117;-69
2023/10/22 08:34:59;;;;;;;5.80;2.10;;;;;;;;;;5006763;28;20025;-69
2023/10/22 08:37:24;;;;;;;7.32;2.28;;;;;;;;;;5014050;28;20049;-61
2023/10/22 08:39:49;;;;;;;4.25;2.08;;;;;;;;;;5016724;28;20072;-64
2023/10/22 08:42:19;;;;;;;5.68;2.17;;;;;;;;;;5021118;28;20026;-63
2023/10/22 08:44:45;;;;;;;5.22;2.20;;;;;;;;;;5019423;28;20030;-65
2023/10/22 08:47:11;;;;;;;4.80;2.10;;;;;;;;;;5012045;28;20029;-63
2023/10/22 08:49:39;;;;;;;7.72;2.50;;;;;;;;;;5006557;28;20030;-64
2023/10/22 08:52:04;;;;;;;8.43;2.53;;;;;;;;;;5002709;28;20430;-61
2023/10/22 08:54:30;;;;;;;5.18;1.90;;;;;;;;;;4999615;28;20025;-64
2023/10/22 08:56:55;;;;;;;5.90;2.00;;;;;;;;;;4999808;28;20383;-63
2023/10/22 08:59:20;;;;;;;5.22;2.03;;;;;;;;;;5000702;28;20108;-62
2023/10/22 09:01:46;;;;;;;4.80;1.98;;;;;;;;;;5009767;28;20022;-64
2023/10/22 09:04:11;;;;;;;4.60;2.10;;;;;;;;;;5020315;28;20026;-62
2023/10/22 09:06:36;;;;;;;7.38;2.45;;;;;;;;;;5012266;28;20109;-65
2023/10/22 09:09:03;;;;;;;6.25;2.20;;;;;;;;;;5006738;28;20088;-64
2023/10/22 09:11:28;;;;;;;5.18;2.45;;;;;;;;;;5000439;28;20079;-63
2023/10/22 09:13:53;;;;;;;5.10;2.22;;;;;;;;;;5010129;28;20030;-61
2023/10/22 09:16:32;;;;;;;5.80;2.70;;;;;;;;;;5011858;28;20024;-60
2023/10/22 09:18:58;;;;;;;4.68;2.53;;;;;;;;;;5013786;28;20141;-62
2023/10/22 09:21:23;;;;;;;8.10;2.50;;;;;;;;;;5012712;28;20507;-61
2023/10/22 09:24:02;;;;;;;8.13;2.60;;;;;;;;;;5011842;28;20097;-63
2023/10/22 09:26:39;;;;;;;5.18;2.20;;;;;;;;;;5011520;28;20452;-61
2023/10/22 09:29:04;;;;;;;9.57;2.63;;;;;;;;;;5016310;28;20056;-62
2023/10/22 09:31:30;;;;;;;6.25;2.22;;;;;;;;;;5014725;28;20033;-62
2023/10/22 09:33:55;;;;;;;5.93;2.30;;;;;;;;;;5010965;28;21402;-63
2023/10/22 09:36:25;;;;;;;4.30;1.90;;;;;;;;;;5014857;28;20392;-62
2023/10/22 09:38:50;;;;;;;6.20;2.17;;;;;;;;;;5012815;28;20048;-62
2023/10/22 09:41:18;;;;;;;5.57;1.98;;;;;;;;;;5007977;28;20022;-63
2023/10/22 09:43:44;;;;;;;4.20;1.70;;;;;;;;;;5010046;28;20426;-64
2023/10/22 09:46:09;;;;;;;3.45;1.90;;;;;;;;;;5014364;28;20025;-68
2023/10/22 09:48:35;;;;;;;5.55;1.95;;;;;;;;;;5024008;28;20506;-67
2023/10/22 09:51:03;;;;;;;4.78;1.60;;;;;;;;;;5010753;28;20025;-69
2023/10/22 09:53:30;;;;;;;5.82;1.75;;;;;;;;;;5005402;28;20382;-66
2023/10/22 09:55:56;;;;;;;4.78;1.65;;;;;;;;;;5003944;28;20032;-69
2023/10/22 09:58:24;;;;;;;6.50;1.45;;;;;;;;;;5010347;28;20014;-68
2023/10/22 10:00:49;;;;;;;2.90;1.23;;;;;;;;;;5009223;28;20506;-67
2023/10/22 10:03:15;;;;;;;2.85;1.08;;;;;;;;;;5013675;28;20048;-67
2023/10/22 10:05:40;;;;;;;3.40;1.00;;;;;;;;;;5017068;28;20036;-67
2023/10/22 10:08:06;;;;;;;2.67;1.00;;;;;;;;;;5002571;28;20026;-67
2023/10/22 10:10:32;;;;;;;3.78;1.23;;;;;;;;;;5017356;28;20044;-69
2023/10/22 10:12:57;;;;;;;4.28;1.20;;;;;;;;;;5017000;28;20388;-70
2023/10/22 10:15:33;;;;;;;4.15;1.45;;;;;;;;;;5009909;28;20081;-67
2023/10/22 10:18:00;;;;;;;4.47;1.20;;;;;;;;;;5007963;28;20568;-69
2023/10/22 10:20:27;;;;;;;2.72;0.77;;;;;;;;;;5010465;28;20038;-70
2023/10/22 10:23:02;;;;;;;2.53;0.80;;;;;;;;;;5005109;28;20029;-68
2023/10/22 10:25:31;;;;;;;2.97;1.00;;;;;;;;;;5004816;28;20114;-67
2023/10/22 10:27:59;;;;;;;4.75;1.00;;;;;;;;;;5011124;28;20054;-67
2023/10/22 10:30:25;;;;;;;2.20;0.98;;;;;;;;;;5009961;28;20384;-68
2023/10/22 10:32:51;;;;;;;2.83;1.00;;;;;;;;;;5009985;28;20022;-68
2023/10/22 10:35:17;;;;;;;2.47;1.10;;;;;;;;;;5008108;28;20098;-68
2023/10/22 10:38:08;;;;;;;2.72;1.30;;;;;;;;;;5025789;28;20492;-68
2023/10/22 10:40:42;;;;;;;2.78;1.20;;;;;;;;;;4956635;28;20113;-69
2023/10/22 10:43:07;;;;;;;4.97;1.40;;;;;;;;;;4946597;28;20126;-68
2023/10/22 10:45:32;;;;;;;3.17;1.30;;;;;;;;;;4948191;28;20157;-67
2023/10/22 10:47:58;;;;;;;4.03;1.40;;;;;;;;;;4946648;29;20149;-67
2023/10/22 10:50:23;;;;;;;3.75;1.48;;;;;;;;;;4949656;29;20020;-67
2023/10/22 10:52:48;;;;;;;4.07;1.90;;;;;;;;;;4949909;28;20061;-68
2023/10/22 10:55:19;;;;;;;5.50;2.83;;;;;;;;;;4947655;28;20027;-69
2023/10/22 10:57:49;;;;;;;6.60;2.40;;;;;;;;;;4957141;28;20066;-66
2023/10/22 11:00:20;;;;;;;5.47;1.85;;;;;;;;;;4960533;28;20031;-60
2023/10/22 11:02:45;;;;;;;;;;;;;;;;;;4948146;28;20501;-65
2023/10/22 11:05:11;;;;;;;6.43;1.85;;;;;;;;;;4954690;28;19916;-65
2023/10/22 11:07:37;;;;;;;5.25;2.17;;;;;;;;;;4951708;28;20023;-65
2023/10/22 11:10:09;;;;;;;4.00;1.83;;;;;;;;;;4960548;28;20042;-62
2023/10/22 11:12:34;;;;;;;6.63;2.20;;;;;;;;;;4950024;28;20019;-64
2023/10/22 11:14:59;;;;;;;5.60;2.42;;;;;;;;;;4969282;28;20088;-62
2023/10/22 11:17:26;;;;;;;3.38;2.00;;;;;;;;;;4993553;28;20549;-62
2023/10/22 11:19:51;;;;;;;5.30;2.40;;;;;;;;;;5014236;28;20061;-64
2023/10/22 11:22:16;;;;;;;5.68;2.17;;;;;;;;;;5014494;28;20435;-66
2023/10/22 11:24:42;;;;;;;5.47;2.30;;;;;;;;;;5027013;28;20022;-66
2023/10/22 11:27:08;;;;;;;4.90;2.20;;;;;;;;;;5013656;28;20018;-61
2023/10/22 11:29:43;;;;;;;4.47;2.15;;;;;;;;;;5019742;28;20057;-61
2023/10/22 11:32:12;;;;;;;4.18;1.80;;;;;;;;;;5003279;28;20024;-65
2023/10/22 11:34:46;;;;;;;4.68;2.20;;;;;;;;;;5021739;28;20031;-62
2023/10/22 11:37:11;;;;;;;5.20;2.05;;;;;;;;;;5015214;28;20025;-63
2023/10/22 11:39:36;;;;;;;5.32;1.90;;;;;;;;;;5012902;28;20137;-62
2023/10/22 11:42:03;;;;;;;8.18;2.63;;;;;;;;;;5011133;28;20034;-66
2023/10/22 11:44:33;;;;;;;4.03;1.50;;;;;;;;;;5012626;28;20101;-64
2023/10/22 11:46:59;;;;;;;7.13;1.80;;;;;;;;;;5016119;28;20030;-63
2023/10/22 11:49:24;;;;;;;7.70;1.98;;;;;;;;;;5013283;28;20364;-62
2023/10/22 11:51:50;;;;;;;6.30;1.40;;;;;;;;;;5006772;28;20026;-64
2023/10/22 11:54:15;;;;;;;6.47;1.40;;;;;;;;;;5011132;28;20486;-65
2023/10/22 11:56:40;;;;;;;4.88;1.60;;;;;;;;;;5013154;28;20376;-62
2023/10/22 11:59:06;;;;;;;3.97;1.55;;;;;;;;;;5000379;28;20376;-65
2023/10/22 12:01:32;;;;;;;5.47;1.55;;;;;;;;;;5013146;28;20022;-62
2023/10/22 12:03:57;;;;;;;6.55;1.70;;;;;;;;;;5013003;28;20517;-63
2023/10/22 12:06:23;;;;;;;4.07;1.40;;;;;;;;;;5012020;28;20026;-68
2023/10/22 12:08:48;;;;;;;3.40;1.25;;;;;;;;;;5019335;28;20037;-70
2023/10/22 12:11:13;;;;;;;3.38;1.15;;;;;;;;;;5015945;28;20037;-68
2023/10/22 12:13:38;;;;;;;2.63;1.30;;;;;;;;;;5011661;28;20544;-71
2023/10/22 12:16:04;;;;;;;2.65;1.00;;;;;;;;;;5013242;28;20484;-67
2023/10/22 12:18:29;;;;;;;2.92;1.35;;;;;;;;;;5023020;28;20136;-66
2023/10/22 12:20:57;;;;;;;3.63;1.10;;;;;;;;;;5005092;28;20022;-71
2023/10/22 12:23:24;;;;;;;4.40;1.02;;;;;;;;;;5008800;28;20053;-70
2023/10/22 12:25:49;;;;;;;3.13;0.90;;;;;;;;;;5012005;28;20388;-66
2023/10/22 12:28:15;;;;;;;2.47;0.80;;;;;;;;;;5009256;28;20014;-71
2023/10/22 12:30:40;;;;;;;1.92;1.05;;;;;;;;;;5006541;28;20026;-67
2023/10/22 12:33:05;;;;;;;1.92;0.85;;;;;;;;;;5011631;28;20018;-71
2023/10/22 12:35:30;;;;;;;3.90;0.93;;;;;;;;;;5013193;28;20021;-68
2023/10/22 12:37:56;;;;;;;2.33;0.90;;;;;;;;;;5014450;28;20022;-67
2023/10/22 12:40:21;;;;;;;3.45;1.20;;;;;;;;;;5008877;28;20026;-68
2023/10/22 12:42:46;;;;;;;2.58;1.05;;;;;;;;;;5017809;28;20032;-70
2023/10/22 12:45:12;;;;;;;3.88;1.30;;;;;;;;;;5005369;28;20121;-70
2023/10/22 12:47:38;;;;;;;4.07;1.20;;;;;;;;;;5016182;28;20097;-71
2023/10/22 12:50:04;;;;;;;5.15;1.33;;;;;;;;;;5011691;28;20096;-69
2023/10/22 12:52:29;;;;;;;4.00;1.05;;;;;;;;;;5007828;28;20063;-68
2023/10/22 12:54:55;;;;;;;5.00;0.98;;;;;;;;;;5007709;28;20033;-71
2023/10/22 12:57:21;;;;;;;3.60;1.30;;;;;;;;;;5011649;28;20411;-68
2023/10/22 12:59:46;;;;;;;3.97;1.20;;;;;;;;;;5017701;28;20021;-68
2023/10/22 13:02:11;;;;;;;3.95;1.10;;;;;;;;;;5010340;28;20503;-71
2023/10/22 13:04:36;;;;;;;3.78;1.20;;;;;;;;;;5009941;28;20021;-72
2023/10/22 13:07:02;;;;;;;3.17;1.13;;;;;;;;;;5013176;28;20064;-71
2023/10/22 13:09:27;;;;;;;3.95;1.13;;;;;;;;;;5017999;28;20029;-71
2023/10/22 13:11:52;;;;;;;4.80;1.08;;;;;;;;;;5012151;28;20034;-70
2023/10/22 13:14:18;;;;;;;5.60;1.30;;;;;;;;;;5012150;28;20387;-70
2023/10/22 13:16:43;;;;;;;4.75;1.20;;;;;;;;;;5011572;28;20080;-71
2023/10/22 13:19:09;;;;;;;5.50;1.20;;;;;;;;;;5012021;28;20050;-70
2023/10/22 13:21:34;;;;;;;6.43;1.25;;;;;;;;;;5012856;28;20118;-70
2023/10/22 13:24:01;;;;;;;6.93;1.30;;;;;;;;;;5026626;28;20030;-71
2023/10/22 13:26:29;;;;;;;5.30;1.05;;;;;;;;;;5014348;28;20033;-62
2023/10/22 13:28:54;;;;;;;3.95;1.30;;;;;;;;;;5012764;28;20391;-70
2023/10/22 13:31:20;;;;;;;3.10;1.05;;;;;;;;;;5011678;28;20037;-70
2023/10/22 13:33:45;;;;;;;5.30;1.30;;;;;;;;;;5011936;28;20093;-68
2023/10/22 13:36:11;;;;;;;3.03;1.08;;;;;;;;;;5011204;28;20088;-71
2023/10/22 13:38:37;;;;;;;2.58;1.08;;;;;;;;;;5020982;28;20056;-71
2023/10/22 13:41:02;;;;;;;4.78;0.90;;;;;;;;;;5030417;28;20096;-67
2023/10/22 13:43:27;;;;;;;2.53;0.80;;;;;;;;;;5001741;28;20076;-70
2023/10/22 13:45:53;;;;;;;2.80;0.70;;;;;;;;;;5007549;28;20022;-68
2023/10/22 13:48:18;;;;;;;1.92;0.70;;;;;;;;;;5011293;28;20021;-68
2023/10/22 13:50:43;;;;;;;1.65;0.68;;;;;;;;;;5013120;28;20037;-68
2023/10/22 13:53:09;;;;;;;2.45;0.80;;;;;;;;;;5010949;28;20029;-68
2023/10/22 13:55:34;;;;;;;4.80;0.90;;;;;;;;;;5009956;28;20030;-67
2023/10/22 13:57:59;;;;;;;2.65;0.70;;;;;;;;;;5012161;28;20021;-66
2023/10/22 14:00:25;;;;;;;1.60;0.63;;;;;;;;;;5011560;28;20369;-70
2023/10/22 14:02:50;;;;;;;2.50;0.80;;;;;;;;;;5006878;28;20393;-69
2023/10/22 14:05:15;;;;;;;3.53;0.90;;;;;;;;;;5013255;28;20117;-67
2023/10/22 14:07:41;;;;;;;3.65;0.88;;;;;;;;;;5005991;28;20018;-70
2023/10/22 14:10:07;;;;;;;2.15;0.73;;;;;;;;;;5011235;28;20154;-71
2023/10/22 14:12:32;;;;;;;4.20;1.00;;;;;;;;;;5012905;28;20044;-68
2023/10/22 14:14:58;;;;;;;3.42;0.93;;;;;;;;;;5008818;28;20532;-68
2023/10/22 14:17:23;;;;;;;3.35;1.00;;;;;;;;;;5011769;28;20056;-70
2023/10/22 14:19:55;;;;;;;3.97;1.08;;;;;;;;;;5012110;28;20124;-67
2023/10/22 14:22:20;;;;;;;;;;;;;;;;;;5010385;28;20029;-69
2023/10/22 14:24:45;;;;;;;3.00;0.93;;;;;;;;;;5002316;28;19913;-71
2023/10/22 14:27:11;;;;;;;3.70;1.10;;;;;;;;;;5002522;28;20022;-67
2023/10/22 14:29:36;;;;;;;3.53;1.10;;;;;;;;;;5001415;28;20038;-71
2023/10/22 14:32:01;;;;;;;3.72;1.00;;;;;;;;;;4991140;28;20062;-70
2023/10/22 14:34:27;;;;;;;4.20;1.20;;;;;;;;;;5009499;28;20494;-70
2023/10/22 14:36:52;;;;;;;5.28;1.10;;;;;;;;;;5008013;28;20087;-71
2023/10/22 14:39:23;;;;;;;4.53;1.00;;;;;;;;;;5009577;28;20064;-67